sensor_id;sensor_type;location;lat;lon;timestamp;P1;durP1;ratioP1;P2;durP2;ratioP2
46158;SDS011;31888;44.512;26.104;2023-04-29T00:01:58;14.02;;;8.52;;
46158;SDS011;31888;44.512;26.104;2023-04-29T00:04:23;15.70;;;8.77;;
46158;SDS011;31888;44.512;26.104;2023-04-29T00:06:49;12.88;;;8.52;;
46158;SDS011;31888;44.512;26.104;2023-04-29T00:09:14;15.43;;;8.48;;
46158;SDS011;31888;44.512;26.104;2023-04-29T00:11:38;13.23;;;7.90;;
46158;SDS011;31888;44.512;26.104;2023-04-29T00:14:03;16.58;;;8.80;;
46158;SDS011;31888;44.512;26.104;2023-04-29T00:16:28;15.50;;;9.00;;
46158;SDS011;31888;44.512;26.104;2023-04-29T00:18:52;14.20;;;8.05;;
46158;SDS011;31888;44.512;26.104;2023-04-29T00:21:17;13.90;;;8.15;;
46158;SDS011;31888;44.512;26.104;2023-04-29T00:23:44;19.10;;;9.70;;
46158;SDS011;31888;44.512;26.104;2023-04-29T00:26:09;17.35;;;9.00;;
46158;SDS011;31888;44.512;26.104;2023-04-29T00:28:37;19.08;;;9.38;;
46158;SDS011;31888;44.512;26.104;2023-04-29T00:31:02;14.18;;;8.75;;
46158;SDS011;31888;44.512;26.104;2023-04-29T00:33:26;13.55;;;8.93;;
46158;SDS011;31888;44.512;26.104;2023-04-29T00:35:51;17.05;;;8.95;;
46158;SDS011;31888;44.512;26.104;2023-04-29T00:38:17;16.98;;;9.20;;
46158;SDS011;31888;44.512;26.104;2023-04-29T00:40:44;18.33;;;8.85;;
46158;SDS011;31888;44.512;26.104;2023-04-29T00:43:09;17.25;;;9.10;;
46158;SDS011;31888;44.512;26.104;2023-04-29T00:45:34;16.60;;;8.80;;
46158;SDS011;31888;44.512;26.104;2023-04-29T00:47:58;17.50;;;8.50;;
46158;SDS011;31888;44.512;26.104;2023-04-29T00:50:23;21.88;;;10.55;;
46158;SDS011;31888;44.512;26.104;2023-04-29T00:52:49;16.83;;;8.52;;
46158;SDS011;31888;44.512;26.104;2023-04-29T00:55:15;21.38;;;9.70;;
46158;SDS011;31888;44.512;26.104;2023-04-29T00:57:43;16.83;;;8.25;;
46158;SDS011;31888;44.512;26.104;2023-04-29T01:00:10;15.13;;;8.63;;
46158;SDS011;31888;44.512;26.104;2023-04-29T01:02:36;13.88;;;8.63;;
46158;SDS011;31888;44.512;26.104;2023-04-29T01:05:01;16.83;;;8.95;;
46158;SDS011;31888;44.512;26.104;2023-04-29T01:07:29;13.85;;;8.30;;
46158;SDS011;31888;44.512;26.104;2023-04-29T01:10:01;17.65;;;8.98;;
46158;SDS011;31888;44.512;26.104;2023-04-29T01:12:32;16.15;;;9.20;;
46158;SDS011;31888;44.512;26.104;2023-04-29T01:15:04;17.40;;;10.13;;
46158;SDS011;31888;44.512;26.104;2023-04-29T01:17:35;25.65;;;11.00;;
46158;SDS011;31888;44.512;26.104;2023-04-29T01:22:29;19.80;;;10.35;;
46158;SDS011;31888;44.512;26.104;2023-04-29T01:24:55;20.67;;;10.35;;
46158;SDS011;31888;44.512;26.104;2023-04-29T01:27:23;17.00;;;8.73;;
46158;SDS011;31888;44.512;26.104;2023-04-29T01:30:12;20.92;;;11.55;;
46158;SDS011;31888;44.512;26.104;2023-04-29T01:32:52;12.70;;;8.50;;
46158;SDS011;31888;44.512;26.104;2023-04-29T01:35:27;19.35;;;10.93;;
46158;SDS011;31888;44.512;26.104;2023-04-29T01:38:02;24.27;;;10.02;;
46158;SDS011;31888;44.512;26.104;2023-04-29T01:43:15;18.65;;;11.77;;
46158;SDS011;31888;44.512;26.104;2023-04-29T01:45:42;17.00;;;9.40;;
46158;SDS011;31888;44.512;26.104;2023-04-29T01:48:09;26.08;;;10.38;;
46158;SDS011;31888;44.512;26.104;2023-04-29T01:50:36;19.90;;;9.57;;
46158;SDS011;31888;44.512;26.104;2023-04-29T01:53:05;16.48;;;9.57;;
46158;SDS011;31888;44.512;26.104;2023-04-29T01:55:30;15.48;;;9.57;;
46158;SDS011;31888;44.512;26.104;2023-04-29T01:58:08;19.13;;;11.57;;
46158;SDS011;31888;44.512;26.104;2023-04-29T02:00:54;20.48;;;11.32;;
46158;SDS011;31888;44.512;26.104;2023-04-29T02:03:20;21.73;;;10.93;;
46158;SDS011;31888;44.512;26.104;2023-04-29T02:05:49;19.88;;;11.05;;
46158;SDS011;31888;44.512;26.104;2023-04-29T02:08:13;17.73;;;9.75;;
46158;SDS011;31888;44.512;26.104;2023-04-29T02:10:40;21.58;;;11.00;;
46158;SDS011;31888;44.512;26.104;2023-04-29T02:13:14;21.55;;;12.13;;
46158;SDS011;31888;44.512;26.104;2023-04-29T02:15:41;22.83;;;10.32;;
46158;SDS011;31888;44.512;26.104;2023-04-29T02:18:30;19.13;;;10.93;;
46158;SDS011;31888;44.512;26.104;2023-04-29T02:20:58;17.70;;;10.40;;
46158;SDS011;31888;44.512;26.104;2023-04-29T02:23:26;21.30;;;10.80;;
46158;SDS011;31888;44.512;26.104;2023-04-29T02:25:51;19.13;;;10.05;;
46158;SDS011;31888;44.512;26.104;2023-04-29T02:28:18;19.63;;;10.43;;
46158;SDS011;31888;44.512;26.104;2023-04-29T02:30:43;22.88;;;11.65;;
46158;SDS011;31888;44.512;26.104;2023-04-29T02:33:07;23.13;;;10.82;;
46158;SDS011;31888;44.512;26.104;2023-04-29T02:35:35;20.33;;;11.13;;
46158;SDS011;31888;44.512;26.104;2023-04-29T02:38:00;19.60;;;11.13;;
46158;SDS011;31888;44.512;26.104;2023-04-29T02:40:24;20.85;;;11.18;;
46158;SDS011;31888;44.512;26.104;2023-04-29T02:42:49;19.67;;;10.90;;
46158;SDS011;31888;44.512;26.104;2023-04-29T02:45:16;20.73;;;11.35;;
46158;SDS011;31888;44.512;26.104;2023-04-29T02:47:41;18.00;;;10.27;;
46158;SDS011;31888;44.512;26.104;2023-04-29T02:50:06;17.48;;;9.98;;
46158;SDS011;31888;44.512;26.104;2023-04-29T02:52:34;17.98;;;10.02;;
46158;SDS011;31888;44.512;26.104;2023-04-29T02:55:02;20.35;;;10.93;;
46158;SDS011;31888;44.512;26.104;2023-04-29T02:57:27;21.08;;;10.15;;
46158;SDS011;31888;44.512;26.104;2023-04-29T02:59:53;14.75;;;9.48;;
46158;SDS011;31888;44.512;26.104;2023-04-29T03:02:21;14.25;;;9.15;;
46158;SDS011;31888;44.512;26.104;2023-04-29T03:04:50;18.65;;;8.45;;
46158;SDS011;31888;44.512;26.104;2023-04-29T03:07:17;16.95;;;9.57;;
46158;SDS011;31888;44.512;26.104;2023-04-29T03:10:31;16.20;;;8.85;;
46158;SDS011;31888;44.512;26.104;2023-04-29T03:13:41;17.13;;;9.00;;
46158;SDS011;31888;44.512;26.104;2023-04-29T03:16:13;18.20;;;9.32;;
46158;SDS011;31888;44.512;26.104;2023-04-29T03:21:15;26.38;;;9.77;;
46158;SDS011;31888;44.512;26.104;2023-04-29T03:23:40;17.55;;;9.98;;
46158;SDS011;31888;44.512;26.104;2023-04-29T03:26:10;21.40;;;9.63;;
46158;SDS011;31888;44.512;26.104;2023-04-29T03:28:35;12.77;;;7.93;;
46158;SDS011;31888;44.512;26.104;2023-04-29T03:31:00;17.15;;;8.45;;
46158;SDS011;31888;44.512;26.104;2023-04-29T03:33:25;16.08;;;9.00;;
46158;SDS011;31888;44.512;26.104;2023-04-29T03:35:51;16.95;;;8.45;;
46158;SDS011;31888;44.512;26.104;2023-04-29T03:38:28;15.98;;;7.85;;
46158;SDS011;31888;44.512;26.104;2023-04-29T03:40:53;15.30;;;8.52;;
46158;SDS011;31888;44.512;26.104;2023-04-29T03:43:17;14.68;;;8.45;;
46158;SDS011;31888;44.512;26.104;2023-04-29T03:45:42;14.88;;;8.27;;
46158;SDS011;31888;44.512;26.104;2023-04-29T03:48:10;17.95;;;9.25;;
46158;SDS011;31888;44.512;26.104;2023-04-29T03:50:36;18.15;;;9.45;;
46158;SDS011;31888;44.512;26.104;2023-04-29T03:53:07;17.75;;;9.38;;
46158;SDS011;31888;44.512;26.104;2023-04-29T03:55:31;14.50;;;7.55;;
46158;SDS011;31888;44.512;26.104;2023-04-29T03:57:56;17.05;;;8.90;;
46158;SDS011;31888;44.512;26.104;2023-04-29T04:00:21;15.98;;;8.82;;
46158;SDS011;31888;44.512;26.104;2023-04-29T04:02:50;13.70;;;7.63;;
46158;SDS011;31888;44.512;26.104;2023-04-29T04:05:15;11.32;;;6.38;;
46158;SDS011;31888;44.512;26.104;2023-04-29T04:07:45;11.35;;;6.25;;
46158;SDS011;31888;44.512;26.104;2023-04-29T04:10:43;8.85;;;5.63;;
46158;SDS011;31888;44.512;26.104;2023-04-29T04:13:28;14.23;;;8.05;;
46158;SDS011;31888;44.512;26.104;2023-04-29T04:15:53;18.98;;;9.48;;
46158;SDS011;31888;44.512;26.104;2023-04-29T04:18:19;15.35;;;8.38;;
46158;SDS011;31888;44.512;26.104;2023-04-29T04:20:44;22.75;;;11.27;;
46158;SDS011;31888;44.512;26.104;2023-04-29T04:23:09;20.45;;;10.45;;
46158;SDS011;31888;44.512;26.104;2023-04-29T04:25:34;28.40;;;11.82;;
46158;SDS011;31888;44.512;26.104;2023-04-29T04:28:21;27.65;;;12.55;;
46158;SDS011;31888;44.512;26.104;2023-04-29T04:30:56;30.20;;;14.02;;
46158;SDS011;31888;44.512;26.104;2023-04-29T04:33:22;30.67;;;15.07;;
46158;SDS011;31888;44.512;26.104;2023-04-29T04:35:46;25.58;;;15.05;;
46158;SDS011;31888;44.512;26.104;2023-04-29T04:38:11;21.00;;;13.32;;
46158;SDS011;31888;44.512;26.104;2023-04-29T04:40:39;27.90;;;13.23;;
46158;SDS011;31888;44.512;26.104;2023-04-29T04:43:26;21.95;;;11.18;;
46158;SDS011;31888;44.512;26.104;2023-04-29T04:45:51;28.10;;;14.77;;
46158;SDS011;31888;44.512;26.104;2023-04-29T04:48:16;21.35;;;12.88;;
46158;SDS011;31888;44.512;26.104;2023-04-29T04:50:44;28.85;;;17.65;;
46158;SDS011;31888;44.512;26.104;2023-04-29T04:53:10;25.88;;;16.00;;
46158;SDS011;31888;44.512;26.104;2023-04-29T04:55:43;25.08;;;12.48;;
46158;SDS011;31888;44.512;26.104;2023-04-29T04:58:12;23.40;;;11.95;;
46158;SDS011;31888;44.512;26.104;2023-04-29T05:01:01;21.27;;;14.18;;
46158;SDS011;31888;44.512;26.104;2023-04-29T05:03:26;19.15;;;11.25;;
46158;SDS011;31888;44.512;26.104;2023-04-29T05:05:52;26.90;;;15.20;;
46158;SDS011;31888;44.512;26.104;2023-04-29T05:08:18;21.35;;;14.35;;
46158;SDS011;31888;44.512;26.104;2023-04-29T05:10:43;21.98;;;11.95;;
46158;SDS011;31888;44.512;26.104;2023-04-29T05:13:07;22.65;;;13.15;;
46158;SDS011;31888;44.512;26.104;2023-04-29T05:15:33;17.73;;;11.00;;
46158;SDS011;31888;44.512;26.104;2023-04-29T05:18:03;25.85;;;14.73;;
46158;SDS011;31888;44.512;26.104;2023-04-29T05:20:28;25.33;;;15.30;;
46158;SDS011;31888;44.512;26.104;2023-04-29T05:22:55;21.08;;;13.32;;
46158;SDS011;31888;44.512;26.104;2023-04-29T05:25:21;33.33;;;14.95;;
46158;SDS011;31888;44.512;26.104;2023-04-29T05:27:45;26.67;;;15.38;;
46158;SDS011;31888;44.512;26.104;2023-04-29T05:30:13;21.48;;;14.77;;
46158;SDS011;31888;44.512;26.104;2023-04-29T05:32:41;24.70;;;14.65;;
46158;SDS011;31888;44.512;26.104;2023-04-29T05:35:11;22.83;;;14.07;;
46158;SDS011;31888;44.512;26.104;2023-04-29T05:37:36;22.73;;;14.05;;
46158;SDS011;31888;44.512;26.104;2023-04-29T05:40:20;23.45;;;14.07;;
46158;SDS011;31888;44.512;26.104;2023-04-29T05:42:48;21.00;;;13.63;;
46158;SDS011;31888;44.512;26.104;2023-04-29T05:45:13;25.33;;;13.68;;
46158;SDS011;31888;44.512;26.104;2023-04-29T05:47:38;20.98;;;13.63;;
46158;SDS011;31888;44.512;26.104;2023-04-29T05:50:03;20.80;;;10.07;;
46158;SDS011;31888;44.512;26.104;2023-04-29T05:52:30;23.10;;;13.40;;
46158;SDS011;31888;44.512;26.104;2023-04-29T05:54:54;16.80;;;11.90;;
46158;SDS011;31888;44.512;26.104;2023-04-29T05:57:19;24.95;;;12.25;;
46158;SDS011;31888;44.512;26.104;2023-04-29T05:59:44;20.08;;;11.88;;
46158;SDS011;31888;44.512;26.104;2023-04-29T06:02:09;18.15;;;11.63;;
46158;SDS011;31888;44.512;26.104;2023-04-29T06:04:37;17.13;;;10.23;;
46158;SDS011;31888;44.512;26.104;2023-04-29T06:07:19;18.80;;;11.77;;
46158;SDS011;31888;44.512;26.104;2023-04-29T06:10:07;20.63;;;12.02;;
46158;SDS011;31888;44.512;26.104;2023-04-29T06:12:37;16.23;;;10.55;;
46158;SDS011;31888;44.512;26.104;2023-04-29T06:15:01;16.67;;;9.93;;
46158;SDS011;31888;44.512;26.104;2023-04-29T06:17:27;16.08;;;10.18;;
46158;SDS011;31888;44.512;26.104;2023-04-29T06:19:52;18.40;;;10.50;;
46158;SDS011;31888;44.512;26.104;2023-04-29T06:22:18;15.18;;;9.60;;
46158;SDS011;31888;44.512;26.104;2023-04-29T06:24:46;17.67;;;10.82;;
46158;SDS011;31888;44.512;26.104;2023-04-29T06:27:21;15.95;;;10.50;;
46158;SDS011;31888;44.512;26.104;2023-04-29T06:29:47;20.60;;;10.40;;
46158;SDS011;31888;44.512;26.104;2023-04-29T06:32:12;14.98;;;9.77;;
46158;SDS011;31888;44.512;26.104;2023-04-29T06:34:38;18.13;;;10.65;;
46158;SDS011;31888;44.512;26.104;2023-04-29T06:37:26;16.27;;;10.10;;
46158;SDS011;31888;44.512;26.104;2023-04-29T06:40:17;18.95;;;10.77;;
46158;SDS011;31888;44.512;26.104;2023-04-29T06:43:02;21.65;;;10.68;;
46158;SDS011;31888;44.512;26.104;2023-04-29T06:45:29;17.70;;;11.10;;
46158;SDS011;31888;44.512;26.104;2023-04-29T06:48:01;21.13;;;11.13;;
46158;SDS011;31888;44.512;26.104;2023-04-29T06:50:40;18.55;;;10.80;;
46158;SDS011;31888;44.512;26.104;2023-04-29T06:53:12;16.98;;;11.07;;
46158;SDS011;31888;44.512;26.104;2023-04-29T06:55:37;20.90;;;9.32;;
46158;SDS011;31888;44.512;26.104;2023-04-29T06:58:03;14.90;;;8.75;;
46158;SDS011;31888;44.512;26.104;2023-04-29T07:00:29;19.10;;;9.32;;
46158;SDS011;31888;44.512;26.104;2023-04-29T07:02:54;16.73;;;9.75;;
46158;SDS011;31888;44.512;26.104;2023-04-29T07:05:19;16.85;;;10.00;;
46158;SDS011;31888;44.512;26.104;2023-04-29T07:07:44;14.45;;;8.52;;
46158;SDS011;31888;44.512;26.104;2023-04-29T07:10:08;17.38;;;9.93;;
46158;SDS011;31888;44.512;26.104;2023-04-29T07:12:33;16.05;;;9.55;;
46158;SDS011;31888;44.512;26.104;2023-04-29T07:15:00;16.55;;;10.38;;
46158;SDS011;31888;44.512;26.104;2023-04-29T07:17:28;21.00;;;9.40;;
46158;SDS011;31888;44.512;26.104;2023-04-29T07:19:54;13.43;;;8.18;;
46158;SDS011;31888;44.512;26.104;2023-04-29T07:22:21;14.00;;;8.63;;
46158;SDS011;31888;44.512;26.104;2023-04-29T07:24:46;14.95;;;8.68;;
46158;SDS011;31888;44.512;26.104;2023-04-29T07:27:11;13.60;;;8.50;;
46158;SDS011;31888;44.512;26.104;2023-04-29T07:29:35;13.90;;;7.32;;
46158;SDS011;31888;44.512;26.104;2023-04-29T07:32:01;12.13;;;7.55;;
46158;SDS011;31888;44.512;26.104;2023-04-29T07:34:27;18.30;;;8.52;;
46158;SDS011;31888;44.512;26.104;2023-04-29T07:36:52;13.60;;;8.27;;
46158;SDS011;31888;44.512;26.104;2023-04-29T07:39:17;15.65;;;7.72;;
46158;SDS011;31888;44.512;26.104;2023-04-29T07:41:47;14.63;;;8.70;;
46158;SDS011;31888;44.512;26.104;2023-04-29T07:44:11;12.82;;;7.45;;
46158;SDS011;31888;44.512;26.104;2023-04-29T07:46:36;11.20;;;7.05;;
46158;SDS011;31888;44.512;26.104;2023-04-29T07:49:02;13.00;;;7.50;;
46158;SDS011;31888;44.512;26.104;2023-04-29T07:51:29;15.05;;;8.45;;
46158;SDS011;31888;44.512;26.104;2023-04-29T07:53:54;15.65;;;8.48;;
46158;SDS011;31888;44.512;26.104;2023-04-29T07:56:19;17.13;;;8.30;;
46158;SDS011;31888;44.512;26.104;2023-04-29T07:58:45;21.38;;;9.90;;
46158;SDS011;31888;44.512;26.104;2023-04-29T08:01:10;15.55;;;7.70;;
46158;SDS011;31888;44.512;26.104;2023-04-29T08:03:35;15.00;;;7.90;;
46158;SDS011;31888;44.512;26.104;2023-04-29T08:06:05;15.90;;;8.35;;
46158;SDS011;31888;44.512;26.104;2023-04-29T08:08:30;16.23;;;7.50;;
46158;SDS011;31888;44.512;26.104;2023-04-29T08:10:55;12.32;;;7.93;;
46158;SDS011;31888;44.512;26.104;2023-04-29T08:13:23;18.55;;;7.55;;
46158;SDS011;31888;44.512;26.104;2023-04-29T08:15:48;13.60;;;7.32;;
46158;SDS011;31888;44.512;26.104;2023-04-29T08:18:14;14.05;;;6.72;;
46158;SDS011;31888;44.512;26.104;2023-04-29T08:20:39;10.98;;;6.00;;
46158;SDS011;31888;44.512;26.104;2023-04-29T08:23:05;12.52;;;6.97;;
46158;SDS011;31888;44.512;26.104;2023-04-29T08:25:30;16.05;;;7.35;;
46158;SDS011;31888;44.512;26.104;2023-04-29T08:27:54;11.18;;;6.38;;
46158;SDS011;31888;44.512;26.104;2023-04-29T08:30:22;11.02;;;6.05;;
46158;SDS011;31888;44.512;26.104;2023-04-29T08:32:47;11.63;;;5.97;;
46158;SDS011;31888;44.512;26.104;2023-04-29T08:35:12;12.38;;;6.40;;
46158;SDS011;31888;44.512;26.104;2023-04-29T08:37:37;13.73;;;6.38;;
46158;SDS011;31888;44.512;26.104;2023-04-29T08:40:04;14.25;;;6.45;;
46158;SDS011;31888;44.512;26.104;2023-04-29T08:42:31;11.32;;;5.78;;
46158;SDS011;31888;44.512;26.104;2023-04-29T08:44:58;10.15;;;6.65;;
46158;SDS011;31888;44.512;26.104;2023-04-29T08:47:28;13.15;;;6.22;;
46158;SDS011;31888;44.512;26.104;2023-04-29T08:49:55;11.07;;;5.78;;
46158;SDS011;31888;44.512;26.104;2023-04-29T08:52:22;16.38;;;5.93;;
46158;SDS011;31888;44.512;26.104;2023-04-29T08:54:48;10.60;;;6.07;;
46158;SDS011;31888;44.512;26.104;2023-04-29T08:57:15;9.23;;;5.55;;
46158;SDS011;31888;44.512;26.104;2023-04-29T08:59:40;14.05;;;5.63;;
46158;SDS011;31888;44.512;26.104;2023-04-29T09:02:05;10.85;;;5.85;;
46158;SDS011;31888;44.512;26.104;2023-04-29T09:04:36;15.38;;;5.78;;
46158;SDS011;31888;44.512;26.104;2023-04-29T09:07:10;9.55;;;5.22;;
46158;SDS011;31888;44.512;26.104;2023-04-29T09:09:35;10.02;;;4.95;;
46158;SDS011;31888;44.512;26.104;2023-04-29T09:12:02;9.52;;;5.70;;
46158;SDS011;31888;44.512;26.104;2023-04-29T09:14:28;8.98;;;5.60;;
46158;SDS011;31888;44.512;26.104;2023-04-29T09:16:55;13.07;;;6.13;;
46158;SDS011;31888;44.512;26.104;2023-04-29T09:19:28;9.50;;;5.50;;
46158;SDS011;31888;44.512;26.104;2023-04-29T09:21:54;16.55;;;5.68;;
46158;SDS011;31888;44.512;26.104;2023-04-29T09:24:19;11.73;;;5.97;;
46158;SDS011;31888;44.512;26.104;2023-04-29T09:26:49;10.68;;;5.72;;
46158;SDS011;31888;44.512;26.104;2023-04-29T09:29:13;13.18;;;6.15;;
46158;SDS011;31888;44.512;26.104;2023-04-29T09:31:41;9.55;;;5.78;;
46158;SDS011;31888;44.512;26.104;2023-04-29T09:34:06;11.98;;;6.00;;
46158;SDS011;31888;44.512;26.104;2023-04-29T09:36:35;8.15;;;4.90;;
46158;SDS011;31888;44.512;26.104;2023-04-29T09:39:08;8.98;;;5.35;;
46158;SDS011;31888;44.512;26.104;2023-04-29T09:41:34;11.13;;;6.00;;
46158;SDS011;31888;44.512;26.104;2023-04-29T09:44:02;13.35;;;6.38;;
46158;SDS011;31888;44.512;26.104;2023-04-29T09:46:28;9.53;;;5.43;;
46158;SDS011;31888;44.512;26.104;2023-04-29T09:48:54;7.97;;;5.45;;
46158;SDS011;31888;44.512;26.104;2023-04-29T09:51:20;11.65;;;5.68;;
46158;SDS011;31888;44.512;26.104;2023-04-29T09:53:46;9.43;;;5.72;;
46158;SDS011;31888;44.512;26.104;2023-04-29T09:56:10;9.52;;;5.97;;
46158;SDS011;31888;44.512;26.104;2023-04-29T09:58:35;10.80;;;5.53;;
46158;SDS011;31888;44.512;26.104;2023-04-29T10:01:00;13.48;;;5.32;;
46158;SDS011;31888;44.512;26.104;2023-04-29T10:03:27;11.73;;;5.65;;
46158;SDS011;31888;44.512;26.104;2023-04-29T10:05:57;9.43;;;5.80;;
46158;SDS011;31888;44.512;26.104;2023-04-29T10:08:23;10.43;;;5.15;;
46158;SDS011;31888;44.512;26.104;2023-04-29T10:10:49;9.15;;;6.03;;
46158;SDS011;31888;44.512;26.104;2023-04-29T10:13:19;12.32;;;6.15;;
46158;SDS011;31888;44.512;26.104;2023-04-29T10:15:50;10.45;;;6.13;;
46158;SDS011;31888;44.512;26.104;2023-04-29T10:18:21;12.02;;;6.35;;
46158;SDS011;31888;44.512;26.104;2023-04-29T10:20:52;10.10;;;5.75;;
46158;SDS011;31888;44.512;26.104;2023-04-29T10:23:23;10.75;;;7.18;;
46158;SDS011;31888;44.512;26.104;2023-04-29T10:25:49;11.07;;;6.22;;
46158;SDS011;31888;44.512;26.104;2023-04-29T10:28:16;8.93;;;5.60;;
46158;SDS011;31888;44.512;26.104;2023-04-29T10:30:42;10.07;;;6.03;;
46158;SDS011;31888;44.512;26.104;2023-04-29T10:33:07;11.45;;;6.10;;
46158;SDS011;31888;44.512;26.104;2023-04-29T10:35:34;8.48;;;6.00;;
46158;SDS011;31888;44.512;26.104;2023-04-29T10:38:01;10.27;;;6.32;;
46158;SDS011;31888;44.512;26.104;2023-04-29T10:40:35;11.93;;;6.90;;
46158;SDS011;31888;44.512;26.104;2023-04-29T10:43:05;20.95;;;6.22;;
46158;SDS011;31888;44.512;26.104;2023-04-29T10:45:30;11.02;;;5.50;;
46158;SDS011;31888;44.512;26.104;2023-04-29T10:48:07;11.23;;;6.05;;
46158;SDS011;31888;44.512;26.104;2023-04-29T10:50:39;11.70;;;6.15;;
46158;SDS011;31888;44.512;26.104;2023-04-29T10:53:24;8.57;;;5.55;;
46158;SDS011;31888;44.512;26.104;2023-04-29T10:55:52;13.52;;;6.57;;
46158;SDS011;31888;44.512;26.104;2023-04-29T10:58:32;12.13;;;6.50;;
46158;SDS011;31888;44.512;26.104;2023-04-29T11:03:49;10.25;;;5.97;;
46158;SDS011;31888;44.512;26.104;2023-04-29T11:06:22;11.93;;;5.53;;
46158;SDS011;31888;44.512;26.104;2023-04-29T11:08:57;10.63;;;5.90;;
46158;SDS011;31888;44.512;26.104;2023-04-29T11:11:24;9.32;;;5.90;;
46158;SDS011;31888;44.512;26.104;2023-04-29T11:13:50;9.27;;;6.13;;
46158;SDS011;31888;44.512;26.104;2023-04-29T11:16:16;11.90;;;6.25;;
46158;SDS011;31888;44.512;26.104;2023-04-29T11:19:03;16.73;;;6.90;;
46158;SDS011;31888;44.512;26.104;2023-04-29T11:21:32;11.18;;;6.90;;
46158;SDS011;31888;44.512;26.104;2023-04-29T11:23:59;9.20;;;6.40;;
46158;SDS011;31888;44.512;26.104;2023-04-29T11:26:24;12.10;;;6.45;;
46158;SDS011;31888;44.512;26.104;2023-04-29T11:28:49;12.05;;;6.43;;
46158;SDS011;31888;44.512;26.104;2023-04-29T11:31:15;9.75;;;5.82;;
46158;SDS011;31888;44.512;26.104;2023-04-29T11:33:40;13.05;;;6.90;;
46158;SDS011;31888;44.512;26.104;2023-04-29T11:36:05;22.25;;;7.35;;
46158;SDS011;31888;44.512;26.104;2023-04-29T11:38:30;15.73;;;7.15;;
46158;SDS011;31888;44.512;26.104;2023-04-29T11:40:57;15.70;;;7.75;;
46158;SDS011;31888;44.512;26.104;2023-04-29T11:43:24;10.02;;;6.18;;
46158;SDS011;31888;44.512;26.104;2023-04-29T11:45:51;10.05;;;6.75;;
46158;SDS011;31888;44.512;26.104;2023-04-29T11:48:16;8.95;;;6.55;;
46158;SDS011;31888;44.512;26.104;2023-04-29T11:50:41;12.27;;;6.18;;
46158;SDS011;31888;44.512;26.104;2023-04-29T11:53:06;17.08;;;7.00;;
46158;SDS011;31888;44.512;26.104;2023-04-29T11:55:31;13.90;;;7.25;;
46158;SDS011;31888;44.512;26.104;2023-04-29T11:57:57;13.07;;;8.02;;
46158;SDS011;31888;44.512;26.104;2023-04-29T12:00:22;15.25;;;7.63;;
46158;SDS011;31888;44.512;26.104;2023-04-29T12:02:48;15.50;;;6.93;;
46158;SDS011;31888;44.512;26.104;2023-04-29T12:05:13;12.05;;;7.43;;
46158;SDS011;31888;44.512;26.104;2023-04-29T12:07:40;8.38;;;6.45;;
46158;SDS011;31888;44.512;26.104;2023-04-29T12:10:07;12.20;;;7.10;;
46158;SDS011;31888;44.512;26.104;2023-04-29T12:12:33;15.57;;;7.30;;
46158;SDS011;31888;44.512;26.104;2023-04-29T12:14:59;18.83;;;6.85;;
46158;SDS011;31888;44.512;26.104;2023-04-29T12:17:26;17.10;;;7.32;;
46158;SDS011;31888;44.512;26.104;2023-04-29T12:19:51;10.40;;;7.50;;
46158;SDS011;31888;44.512;26.104;2023-04-29T12:22:16;17.25;;;7.50;;
46158;SDS011;31888;44.512;26.104;2023-04-29T12:24:42;17.23;;;7.85;;
46158;SDS011;31888;44.512;26.104;2023-04-29T12:27:08;13.68;;;7.53;;
46158;SDS011;31888;44.512;26.104;2023-04-29T12:29:34;12.95;;;7.53;;
46158;SDS011;31888;44.512;26.104;2023-04-29T12:32:04;12.50;;;8.43;;
46158;SDS011;31888;44.512;26.104;2023-04-29T12:34:30;14.05;;;8.55;;
46158;SDS011;31888;44.512;26.104;2023-04-29T12:36:56;16.05;;;8.50;;
46158;SDS011;31888;44.512;26.104;2023-04-29T12:39:23;80.50;;;13.15;;
46158;SDS011;31888;44.512;26.104;2023-04-29T12:41:48;17.90;;;9.32;;
46158;SDS011;31888;44.512;26.104;2023-04-29T12:44:17;20.65;;;9.43;;
46158;SDS011;31888;44.512;26.104;2023-04-29T12:46:42;23.13;;;9.57;;
46158;SDS011;31888;44.512;26.104;2023-04-29T12:49:08;16.90;;;8.88;;
46158;SDS011;31888;44.512;26.104;2023-04-29T12:51:34;11.10;;;7.80;;
46158;SDS011;31888;44.512;26.104;2023-04-29T12:53:58;15.30;;;8.65;;
46158;SDS011;31888;44.512;26.104;2023-04-29T12:56:30;14.85;;;7.70;;
46158;SDS011;31888;44.512;26.104;2023-04-29T12:58:55;11.98;;;8.40;;
46158;SDS011;31888;44.512;26.104;2023-04-29T13:01:31;12.07;;;7.82;;
46158;SDS011;31888;44.512;26.104;2023-04-29T13:03:56;16.52;;;8.05;;
46158;SDS011;31888;44.512;26.104;2023-04-29T13:06:22;17.05;;;8.88;;
46158;SDS011;31888;44.512;26.104;2023-04-29T13:08:47;12.82;;;8.57;;
46158;SDS011;31888;44.512;26.104;2023-04-29T13:11:14;14.27;;;9.43;;
46158;SDS011;31888;44.512;26.104;2023-04-29T13:13:41;13.68;;;7.60;;
46158;SDS011;31888;44.512;26.104;2023-04-29T13:16:07;14.18;;;8.13;;
46158;SDS011;31888;44.512;26.104;2023-04-29T13:18:32;16.33;;;9.38;;
46158;SDS011;31888;44.512;26.104;2023-04-29T13:20:58;14.13;;;9.13;;
46158;SDS011;31888;44.512;26.104;2023-04-29T13:23:25;25.13;;;9.18;;
46158;SDS011;31888;44.512;26.104;2023-04-29T13:25:50;13.52;;;8.70;;
46158;SDS011;31888;44.512;26.104;2023-04-29T13:28:15;16.23;;;8.60;;
46158;SDS011;31888;44.512;26.104;2023-04-29T13:30:39;19.92;;;9.48;;
46158;SDS011;31888;44.512;26.104;2023-04-29T13:33:04;12.82;;;8.27;;
46158;SDS011;31888;44.512;26.104;2023-04-29T13:35:35;18.38;;;8.77;;
46158;SDS011;31888;44.512;26.104;2023-04-29T13:38:02;11.15;;;8.45;;
46158;SDS011;31888;44.512;26.104;2023-04-29T13:40:29;15.57;;;8.70;;
46158;SDS011;31888;44.512;26.104;2023-04-29T13:43:04;19.45;;;9.80;;
46158;SDS011;31888;44.512;26.104;2023-04-29T13:48:04;23.95;;;9.20;;
46158;SDS011;31888;44.512;26.104;2023-04-29T13:50:42;12.95;;;8.30;;
46158;SDS011;31888;44.512;26.104;2023-04-29T13:53:09;14.00;;;8.90;;
46158;SDS011;31888;44.512;26.104;2023-04-29T13:55:55;16.77;;;9.20;;
46158;SDS011;31888;44.512;26.104;2023-04-29T13:58:40;13.27;;;8.50;;
46158;SDS011;31888;44.512;26.104;2023-04-29T14:01:24;13.65;;;7.97;;
46158;SDS011;31888;44.512;26.104;2023-04-29T14:03:52;12.65;;;7.88;;
46158;SDS011;31888;44.512;26.104;2023-04-29T14:06:17;20.67;;;9.00;;
46158;SDS011;31888;44.512;26.104;2023-04-29T14:08:41;15.63;;;9.23;;
46158;SDS011;31888;44.512;26.104;2023-04-29T14:11:08;17.05;;;8.05;;
46158;SDS011;31888;44.512;26.104;2023-04-29T14:13:32;21.75;;;10.10;;
46158;SDS011;31888;44.512;26.104;2023-04-29T14:15:57;16.10;;;8.43;;
46158;SDS011;31888;44.512;26.104;2023-04-29T14:18:25;13.00;;;7.78;;
46158;SDS011;31888;44.512;26.104;2023-04-29T14:20:51;10.27;;;7.15;;
46158;SDS011;31888;44.512;26.104;2023-04-29T14:23:17;14.48;;;7.30;;
46158;SDS011;31888;44.512;26.104;2023-04-29T14:25:42;14.57;;;7.93;;
46158;SDS011;31888;44.512;26.104;2023-04-29T14:28:08;12.88;;;6.82;;
46158;SDS011;31888;44.512;26.104;2023-04-29T14:30:34;7.97;;;6.05;;
46158;SDS011;31888;44.512;26.104;2023-04-29T14:32:59;12.15;;;6.05;;
46158;SDS011;31888;44.512;26.104;2023-04-29T14:35:23;12.52;;;6.35;;
46158;SDS011;31888;44.512;26.104;2023-04-29T14:37:50;13.88;;;6.35;;